sensor_id;sensor_type;location;lat;lon;timestamp;P1;durP1;ratioP1;P2;durP2;ratioP2
74789;SDS011;63318;52.406;13.416;2023-03-01T00:01:09;20.10;;;10.80;;
74789;SDS011;63318;52.406;13.416;2023-03-01T00:03:42;22.00;;;10.40;;
74789;SDS011;63318;52.406;13.416;2023-03-01T00:06:11;20.30;;;10.40;;
74789;SDS011;63318;52.406;13.416;2023-03-01T00:08:40;21.10;;;10.50;;
74789;SDS011;63318;52.406;13.416;2023-03-01T00:11:10;20.00;;;10.50;;
74789;SDS011;63318;52.406;13.416;2023-03-01T00:13:41;20.40;;;10.50;;
74789;SDS011;63318;52.406;13.416;2023-03-01T00:16:11;22.20;;;10.40;;
74789;SDS011;63318;52.406;13.416;2023-03-01T00:18:41;26.30;;;11.40;;
74789;SDS011;63318;52.406;13.416;2023-03-01T00:21:09;24.30;;;12.10;;
74789;SDS011;63318;52.406;13.416;2023-03-01T00:23:38;24.30;;;11.30;;
74789;SDS011;63318;52.406;13.416;2023-03-01T00:26:07;27.90;;;11.90;;
74789;SDS011;63318;52.406;13.416;2023-03-01T00:28:38;23.70;;;11.20;;
74789;SDS011;63318;52.406;13.416;2023-03-01T00:31:08;27.80;;;13.90;;
74789;SDS011;63318;52.406;13.416;2023-03-01T00:33:38;26.80;;;12.30;;
74789;SDS011;63318;52.406;13.416;2023-03-01T00:36:10;25.10;;;12.40;;
74789;SDS011;63318;52.406;13.416;2023-03-01T00:38:40;27.90;;;12.30;;
74789;SDS011;63318;52.406;13.416;2023-03-01T00:41:10;24.20;;;11.60;;
74789;SDS011;63318;52.406;13.416;2023-03-01T00:43:40;27.10;;;12.60;;
74789;SDS011;63318;52.406;13.416;2023-03-01T00:46:09;26.60;;;12.80;;
74789;SDS011;63318;52.406;13.416;2023-03-01T00:48:39;25.20;;;11.40;;
74789;SDS011;63318;52.406;13.416;2023-03-01T00:51:08;21.70;;;11.00;;
74789;SDS011;63318;52.406;13.416;2023-03-01T00:53:38;26.10;;;11.70;;
74789;SDS011;63318;52.406;13.416;2023-03-01T00:56:12;23.70;;;11.30;;
74789;SDS011;63318;52.406;13.416;2023-03-01T00:58:41;25.00;;;12.20;;
74789;SDS011;63318;52.406;13.416;2023-03-01T01:01:10;27.40;;;10.70;;
74789;SDS011;63318;52.406;13.416;2023-03-01T01:03:41;26.00;;;12.00;;
74789;SDS011;63318;52.406;13.416;2023-03-01T01:06:14;23.70;;;10.70;;
74789;SDS011;63318;52.406;13.416;2023-03-01T01:08:44;23.30;;;10.70;;
74789;SDS011;63318;52.406;13.416;2023-03-01T01:11:12;22.10;;;12.00;;
74789;SDS011;63318;52.406;13.416;2023-03-01T01:13:43;25.50;;;11.40;;
74789;SDS011;63318;52.406;13.416;2023-03-01T01:16:12;24.70;;;12.20;;
74789;SDS011;63318;52.406;13.416;2023-03-01T01:18:42;24.40;;;12.20;;
74789;SDS011;63318;52.406;13.416;2023-03-01T01:21:11;25.40;;;12.30;;
74789;SDS011;63318;52.406;13.416;2023-03-01T01:23:41;21.70;;;11.90;;
74789;SDS011;63318;52.406;13.416;2023-03-01T01:26:12;26.90;;;12.10;;
74789;SDS011;63318;52.406;13.416;2023-03-01T01:28:41;25.40;;;12.50;;
74789;SDS011;63318;52.406;13.416;2023-03-01T01:31:11;27.30;;;13.00;;
74789;SDS011;63318;52.406;13.416;2023-03-01T01:33:40;22.50;;;11.40;;
74789;SDS011;63318;52.406;13.416;2023-03-01T01:36:08;24.40;;;12.00;;
74789;SDS011;63318;52.406;13.416;2023-03-01T01:38:37;24.60;;;11.30;;
74789;SDS011;63318;52.406;13.416;2023-03-01T01:41:06;23.10;;;11.20;;
74789;SDS011;63318;52.406;13.416;2023-03-01T01:43:37;24.90;;;12.20;;
74789;SDS011;63318;52.406;13.416;2023-03-01T01:46:10;29.40;;;11.90;;
74789;SDS011;63318;52.406;13.416;2023-03-01T01:48:49;24.50;;;10.70;;
74789;SDS011;63318;52.406;13.416;2023-03-01T01:51:21;27.70;;;11.90;;
74789;SDS011;63318;52.406;13.416;2023-03-01T01:53:55;20.90;;;11.20;;
74789;SDS011;63318;52.406;13.416;2023-03-01T01:56:27;19.80;;;10.20;;
74789;SDS011;63318;52.406;13.416;2023-03-01T01:58:56;22.40;;;10.90;;
74789;SDS011;63318;52.406;13.416;2023-03-01T02:01:25;25.00;;;12.00;;
74789;SDS011;63318;52.406;13.416;2023-03-01T02:03:54;23.60;;;11.40;;
74789;SDS011;63318;52.406;13.416;2023-03-01T02:06:24;23.60;;;11.50;;
74789;SDS011;63318;52.406;13.416;2023-03-01T02:08:57;21.90;;;10.50;;
74789;SDS011;63318;52.406;13.416;2023-03-01T02:11:31;21.70;;;11.40;;
74789;SDS011;63318;52.406;13.416;2023-03-01T02:14:00;23.40;;;10.50;;
74789;SDS011;63318;52.406;13.416;2023-03-01T02:16:29;22.40;;;11.70;;
74789;SDS011;63318;52.406;13.416;2023-03-01T02:18:57;20.40;;;11.00;;
74789;SDS011;63318;52.406;13.416;2023-03-01T02:21:33;23.50;;;11.20;;
74789;SDS011;63318;52.406;13.416;2023-03-01T02:24:12;22.50;;;10.90;;
74789;SDS011;63318;52.406;13.416;2023-03-01T02:29:16;20.40;;;9.80;;
74789;SDS011;63318;52.406;13.416;2023-03-01T02:31:44;19.00;;;10.00;;
74789;SDS011;63318;52.406;13.416;2023-03-01T02:34:13;21.30;;;9.50;;
74789;SDS011;63318;52.406;13.416;2023-03-01T02:36:46;19.70;;;10.90;;
74789;SDS011;63318;52.406;13.416;2023-03-01T02:39:16;17.50;;;10.20;;
74789;SDS011;63318;52.406;13.416;2023-03-01T02:41:49;22.90;;;10.80;;
74789;SDS011;63318;52.406;13.416;2023-03-01T02:44:19;24.30;;;11.10;;
74789;SDS011;63318;52.406;13.416;2023-03-01T02:46:48;24.10;;;10.10;;
74789;SDS011;63318;52.406;13.416;2023-03-01T02:49:22;17.10;;;8.50;;
74789;SDS011;63318;52.406;13.416;2023-03-01T02:54:52;20.80;;;10.40;;
74789;SDS011;63318;52.406;13.416;2023-03-01T02:57:24;21.30;;;10.10;;
74789;SDS011;63318;52.406;13.416;2023-03-01T02:59:55;21.50;;;10.30;;
74789;SDS011;63318;52.406;13.416;2023-03-01T03:02:29;18.00;;;9.80;;
74789;SDS011;63318;52.406;13.416;2023-03-01T03:04:57;19.90;;;10.80;;
74789;SDS011;63318;52.406;13.416;2023-03-01T03:07:25;19.80;;;9.40;;
74789;SDS011;63318;52.406;13.416;2023-03-01T03:09:54;20.10;;;9.60;;
74789;SDS011;63318;52.406;13.416;2023-03-01T03:12:22;20.80;;;10.80;;
74789;SDS011;63318;52.406;13.416;2023-03-01T03:14:50;21.60;;;11.40;;
74789;SDS011;63318;52.406;13.416;2023-03-01T03:17:18;20.60;;;9.70;;
74789;SDS011;63318;52.406;13.416;2023-03-01T03:19:47;19.80;;;9.90;;
74789;SDS011;63318;52.406;13.416;2023-03-01T03:22:15;21.00;;;11.40;;
74789;SDS011;63318;52.406;13.416;2023-03-01T03:24:43;18.00;;;9.50;;
74789;SDS011;63318;52.406;13.416;2023-03-01T03:27:11;22.00;;;11.00;;
74789;SDS011;63318;52.406;13.416;2023-03-01T03:29:40;18.80;;;10.40;;
74789;SDS011;63318;52.406;13.416;2023-03-01T03:32:08;23.20;;;10.40;;
74789;SDS011;63318;52.406;13.416;2023-03-01T03:34:36;21.80;;;10.80;;
74789;SDS011;63318;52.406;13.416;2023-03-01T03:37:04;22.10;;;10.40;;
74789;SDS011;63318;52.406;13.416;2023-03-01T03:39:32;19.50;;;9.40;;
74789;SDS011;63318;52.406;13.416;2023-03-01T03:42:01;22.80;;;10.60;;
74789;SDS011;63318;52.406;13.416;2023-03-01T03:44:29;22.00;;;10.00;;
74789;SDS011;63318;52.406;13.416;2023-03-01T03:46:57;28.50;;;10.30;;
74789;SDS011;63318;52.406;13.416;2023-03-01T03:49:25;19.70;;;10.20;;
74789;SDS011;63318;52.406;13.416;2023-03-01T03:51:53;21.20;;;10.10;;
74789;SDS011;63318;52.406;13.416;2023-03-01T03:54:22;23.10;;;11.90;;
74789;SDS011;63318;52.406;13.416;2023-03-01T03:56:50;18.60;;;10.30;;
74789;SDS011;63318;52.406;13.416;2023-03-01T03:59:18;20.80;;;11.20;;
74789;SDS011;63318;52.406;13.416;2023-03-01T04:01:46;21.70;;;11.10;;
74789;SDS011;63318;52.406;13.416;2023-03-01T04:04:14;19.40;;;10.00;;
74789;SDS011;63318;52.406;13.416;2023-03-01T04:06:42;19.20;;;10.00;;
74789;SDS011;63318;52.406;13.416;2023-03-01T04:09:11;21.40;;;10.60;;
74789;SDS011;63318;52.406;13.416;2023-03-01T04:11:39;20.90;;;10.10;;
74789;SDS011;63318;52.406;13.416;2023-03-01T04:14:07;20.90;;;11.60;;
74789;SDS011;63318;52.406;13.416;2023-03-01T04:16:36;21.90;;;10.30;;
74789;SDS011;63318;52.406;13.416;2023-03-01T04:19:04;20.30;;;10.10;;
74789;SDS011;63318;52.406;13.416;2023-03-01T04:21:32;20.50;;;10.90;;
74789;SDS011;63318;52.406;13.416;2023-03-01T04:24:00;23.40;;;10.60;;
74789;SDS011;63318;52.406;13.416;2023-03-01T04:26:29;23.00;;;10.90;;
74789;SDS011;63318;52.406;13.416;2023-03-01T04:28:57;21.70;;;9.90;;
74789;SDS011;63318;52.406;13.416;2023-03-01T04:31:25;20.30;;;10.80;;
74789;SDS011;63318;52.406;13.416;2023-03-01T04:33:54;23.10;;;11.90;;
74789;SDS011;63318;52.406;13.416;2023-03-01T04:36:23;24.80;;;11.80;;
74789;SDS011;63318;52.406;13.416;2023-03-01T04:38:53;25.50;;;12.00;;
74789;SDS011;63318;52.406;13.416;2023-03-01T04:41:22;26.90;;;13.40;;
74789;SDS011;63318;52.406;13.416;2023-03-01T04:43:51;20.10;;;10.00;;
74789;SDS011;63318;52.406;13.416;2023-03-01T04:46:20;21.60;;;11.00;;
74789;SDS011;63318;52.406;13.416;2023-03-01T04:48:48;23.00;;;11.70;;
74789;SDS011;63318;52.406;13.416;2023-03-01T04:51:16;22.00;;;10.30;;
74789;SDS011;63318;52.406;13.416;2023-03-01T04:53:44;22.20;;;10.30;;
74789;SDS011;63318;52.406;13.416;2023-03-01T04:56:13;19.80;;;11.70;;
74789;SDS011;63318;52.406;13.416;2023-03-01T04:58:42;24.40;;;10.50;;
74789;SDS011;63318;52.406;13.416;2023-03-01T05:01:11;21.50;;;11.20;;
74789;SDS011;63318;52.406;13.416;2023-03-01T05:03:40;22.40;;;10.80;;
74789;SDS011;63318;52.406;13.416;2023-03-01T05:06:09;20.40;;;9.80;;
74789;SDS011;63318;52.406;13.416;2023-03-01T05:08:38;20.20;;;10.50;;
74789;SDS011;63318;52.406;13.416;2023-03-01T05:11:08;20.20;;;10.50;;
74789;SDS011;63318;52.406;13.416;2023-03-01T05:13:37;22.30;;;10.50;;
74789;SDS011;63318;52.406;13.416;2023-03-01T05:16:06;22.50;;;10.90;;
74789;SDS011;63318;52.406;13.416;2023-03-01T05:18:36;23.70;;;10.30;;
74789;SDS011;63318;52.406;13.416;2023-03-01T05:21:05;19.90;;;10.30;;
74789;SDS011;63318;52.406;13.416;2023-03-01T05:23:35;18.50;;;9.90;;
74789;SDS011;63318;52.406;13.416;2023-03-01T05:26:04;24.00;;;11.60;;
74789;SDS011;63318;52.406;13.416;2023-03-01T05:28:34;19.40;;;10.60;;
74789;SDS011;63318;52.406;13.416;2023-03-01T05:31:02;19.90;;;10.00;;
74789;SDS011;63318;52.406;13.416;2023-03-01T05:33:30;21.00;;;10.80;;
74789;SDS011;63318;52.406;13.416;2023-03-01T05:36:00;25.40;;;12.30;;
74789;SDS011;63318;52.406;13.416;2023-03-01T05:38:28;23.50;;;10.60;;
74789;SDS011;63318;52.406;13.416;2023-03-01T05:40:57;22.20;;;10.90;;
74789;SDS011;63318;52.406;13.416;2023-03-01T05:43:25;25.20;;;12.70;;
74789;SDS011;63318;52.406;13.416;2023-03-01T05:45:57;26.10;;;12.70;;
74789;SDS011;63318;52.406;13.416;2023-03-01T05:48:25;26.30;;;12.90;;
74789;SDS011;63318;52.406;13.416;2023-03-01T05:50:53;24.70;;;12.40;;
74789;SDS011;63318;52.406;13.416;2023-03-01T05:53:25;26.20;;;12.20;;
74789;SDS011;63318;52.406;13.416;2023-03-01T05:55:54;27.20;;;13.10;;
74789;SDS011;63318;52.406;13.416;2023-03-01T05:58:22;25.10;;;11.60;;
74789;SDS011;63318;52.406;13.416;2023-03-01T06:00:50;24.60;;;11.40;;
74789;SDS011;63318;52.406;13.416;2023-03-01T06:03:18;25.60;;;12.70;;
74789;SDS011;63318;52.406;13.416;2023-03-01T06:05:47;23.30;;;11.70;;
74789;SDS011;63318;52.406;13.416;2023-03-01T06:08:15;25.20;;;11.10;;
74789;SDS011;63318;52.406;13.416;2023-03-01T06:10:44;27.80;;;13.70;;
74789;SDS011;63318;52.406;13.416;2023-03-01T06:13:12;22.20;;;11.90;;
74789;SDS011;63318;52.406;13.416;2023-03-01T06:15:40;25.60;;;12.60;;
74789;SDS011;63318;52.406;13.416;2023-03-01T06:18:09;25.00;;;10.90;;
74789;SDS011;63318;52.406;13.416;2023-03-01T06:20:37;25.40;;;11.00;;
74789;SDS011;63318;52.406;13.416;2023-03-01T06:23:05;28.60;;;12.20;;
74789;SDS011;63318;52.406;13.416;2023-03-01T06:25:34;28.10;;;12.60;;
74789;SDS011;63318;52.406;13.416;2023-03-01T06:28:02;24.10;;;11.50;;
74789;SDS011;63318;52.406;13.416;2023-03-01T06:30:30;25.70;;;12.50;;
74789;SDS011;63318;52.406;13.416;2023-03-01T06:32:58;25.70;;;10.80;;
74789;SDS011;63318;52.406;13.416;2023-03-01T06:35:27;28.60;;;12.30;;
74789;SDS011;63318;52.406;13.416;2023-03-01T06:37:55;23.80;;;12.40;;
74789;SDS011;63318;52.406;13.416;2023-03-01T06:40:24;29.40;;;12.80;;
74789;SDS011;63318;52.406;13.416;2023-03-01T06:42:53;32.30;;;13.40;;
74789;SDS011;63318;52.406;13.416;2023-03-01T06:45:21;31.50;;;13.80;;
74789;SDS011;63318;52.406;13.416;2023-03-01T06:47:50;26.10;;;11.70;;
74789;SDS011;63318;52.406;13.416;2023-03-01T06:50:18;23.80;;;12.60;;
74789;SDS011;63318;52.406;13.416;2023-03-01T06:52:46;32.40;;;13.30;;
74789;SDS011;63318;52.406;13.416;2023-03-01T06:55:15;28.20;;;13.50;;
74789;SDS011;63318;52.406;13.416;2023-03-01T06:57:43;27.00;;;12.90;;
74789;SDS011;63318;52.406;13.416;2023-03-01T07:00:12;27.10;;;13.40;;
74789;SDS011;63318;52.406;13.416;2023-03-01T07:02:42;29.60;;;13.20;;
74789;SDS011;63318;52.406;13.416;2023-03-01T07:05:10;27.30;;;13.30;;
74789;SDS011;63318;52.406;13.416;2023-03-01T07:07:38;33.90;;;15.50;;
74789;SDS011;63318;52.406;13.416;2023-03-01T07:10:08;34.60;;;16.60;;
74789;SDS011;63318;52.406;13.416;2023-03-01T07:12:37;23.10;;;13.70;;
74789;SDS011;63318;52.406;13.416;2023-03-01T07:15:08;39.20;;;14.60;;
74789;SDS011;63318;52.406;13.416;2023-03-01T07:17:37;26.80;;;12.40;;
74789;SDS011;63318;52.406;13.416;2023-03-01T07:20:06;28.10;;;13.80;;
74789;SDS011;63318;52.406;13.416;2023-03-01T07:22:36;25.00;;;13.70;;
74789;SDS011;63318;52.406;13.416;2023-03-01T07:25:06;28.50;;;14.10;;
74789;SDS011;63318;52.406;13.416;2023-03-01T07:27:35;30.90;;;14.20;;
74789;SDS011;63318;52.406;13.416;2023-03-01T07:30:04;29.20;;;15.10;;
74789;SDS011;63318;52.406;13.416;2023-03-01T07:32:33;34.70;;;12.90;;
74789;SDS011;63318;52.406;13.416;2023-03-01T07:35:01;30.00;;;14.40;;
74789;SDS011;63318;52.406;13.416;2023-03-01T07:37:30;26.30;;;13.50;;
74789;SDS011;63318;52.406;13.416;2023-03-01T07:39:58;28.00;;;15.10;;
74789;SDS011;63318;52.406;13.416;2023-03-01T07:42:27;29.90;;;15.00;;
74789;SDS011;63318;52.406;13.416;2023-03-01T07:44:57;29.00;;;15.80;;
74789;SDS011;63318;52.406;13.416;2023-03-01T07:47:26;29.80;;;15.10;;
74789;SDS011;63318;52.406;13.416;2023-03-01T07:49:54;30.00;;;14.90;;
74789;SDS011;63318;52.406;13.416;2023-03-01T07:52:24;32.50;;;15.10;;
74789;SDS011;63318;52.406;13.416;2023-03-01T07:54:52;27.70;;;14.70;;
74789;SDS011;63318;52.406;13.416;2023-03-01T07:57:20;29.60;;;13.00;;
74789;SDS011;63318;52.406;13.416;2023-03-01T07:59:49;27.00;;;13.20;;
74789;SDS011;63318;52.406;13.416;2023-03-01T08:02:17;19.60;;;11.50;;
74789;SDS011;63318;52.406;13.416;2023-03-01T08:04:46;25.60;;;12.80;;
74789;SDS011;63318;52.406;13.416;2023-03-01T08:07:14;24.80;;;12.90;;
74789;SDS011;63318;52.406;13.416;2023-03-01T08:09:42;23.70;;;12.50;;
74789;SDS011;63318;52.406;13.416;2023-03-01T08:12:11;26.50;;;13.50;;
74789;SDS011;63318;52.406;13.416;2023-03-01T08:14:39;22.50;;;11.80;;
74789;SDS011;63318;52.406;13.416;2023-03-01T08:17:09;23.20;;;12.20;;
74789;SDS011;63318;52.406;13.416;2023-03-01T08:19:39;23.00;;;12.10;;
74789;SDS011;63318;52.406;13.416;2023-03-01T08:22:08;25.80;;;12.60;;
74789;SDS011;63318;52.406;13.416;2023-03-01T08:24:36;27.20;;;13.80;;
74789;SDS011;63318;52.406;13.416;2023-03-01T08:27:06;25.40;;;13.40;;
74789;SDS011;63318;52.406;13.416;2023-03-01T08:29:35;27.00;;;14.00;;
74789;SDS011;63318;52.406;13.416;2023-03-01T08:32:03;26.40;;;14.20;;
74789;SDS011;63318;52.406;13.416;2023-03-01T08:34:33;26.90;;;13.30;;
74789;SDS011;63318;52.406;13.416;2023-03-01T08:37:01;22.90;;;12.10;;
74789;SDS011;63318;52.406;13.416;2023-03-01T08:39:30;21.40;;;12.20;;
74789;SDS011;63318;52.406;13.416;2023-03-01T08:41:58;21.30;;;12.00;;
74789;SDS011;63318;52.406;13.416;2023-03-01T08:44:26;22.80;;;12.00;;
74789;SDS011;63318;52.406;13.416;2023-03-01T08:46:54;22.20;;;11.40;;
74789;SDS011;63318;52.406;13.416;2023-03-01T08:49:23;20.20;;;10.50;;
74789;SDS011;63318;52.406;13.416;2023-03-01T08:51:51;17.80;;;10.30;;
74789;SDS011;63318;52.406;13.416;2023-03-01T08:54:20;18.40;;;10.10;;
74789;SDS011;63318;52.406;13.416;2023-03-01T08:56:49;20.80;;;11.00;;
74789;SDS011;63318;52.406;13.416;2023-03-01T08:59:17;19.10;;;10.70;;
74789;SDS011;63318;52.406;13.416;2023-03-01T09:01:46;19.00;;;10.70;;
74789;SDS011;63318;52.406;13.416;2023-03-01T09:04:15;16.70;;;9.30;;
74789;SDS011;63318;52.406;13.416;2023-03-01T09:06:43;18.10;;;10.80;;
74789;SDS011;63318;52.406;13.416;2023-03-01T09:09:14;13.70;;;8.70;;
74789;SDS011;63318;52.406;13.416;2023-03-01T09:11:43;15.50;;;9.00;;
74789;SDS011;63318;52.406;13.416;2023-03-01T09:14:13;20.00;;;10.10;;
74789;SDS011;63318;52.406;13.416;2023-03-01T09:16:42;16.60;;;9.40;;
74789;SDS011;63318;52.406;13.416;2023-03-01T09:19:10;16.50;;;9.20;;
74789;SDS011;63318;52.406;13.416;2023-03-01T09:21:39;17.40;;;8.50;;
74789;SDS011;63318;52.406;13.416;2023-03-01T09:24:08;16.70;;;8.40;;
74789;SDS011;63318;52.406;13.416;2023-03-01T09:26:42;15.70;;;8.50;;
74789;SDS011;63318;52.406;13.416;2023-03-01T09:29:10;11.90;;;7.00;;
74789;SDS011;63318;52.406;13.416;2023-03-01T09:31:39;16.80;;;8.50;;
74789;SDS011;63318;52.406;13.416;2023-03-01T09:34:08;12.10;;;6.60;;
74789;SDS011;63318;52.406;13.416;2023-03-01T09:36:37;14.40;;;6.90;;
74789;SDS011;63318;52.406;13.416;2023-03-01T09:39:05;15.70;;;7.80;;
74789;SDS011;63318;52.406;13.416;2023-03-01T09:44:30;14.70;;;6.70;;
74789;SDS011;63318;52.406;13.416;2023-03-01T09:47:04;14.80;;;6.70;;
74789;SDS011;63318;52.406;13.416;2023-03-01T09:49:36;13.90;;;7.00;;
74789;SDS011;63318;52.406;13.416;2023-03-01T09:52:11;12.70;;;6.40;;
74789;SDS011;63318;52.406;13.416;2023-03-01T09:54:47;11.70;;;6.20;;
74789;SDS011;63318;52.406;13.416;2023-03-01T09:57:24;13.50;;;6.00;;
74789;SDS011;63318;52.406;13.416;2023-03-01T10:00:00;9.60;;;5.50;;
74789;SDS011;63318;52.406;13.416;2023-03-01T10:02:39;12.20;;;6.30;;
74789;SDS011;63318;52.406;13.416;2023-03-01T10:05:16;10.40;;;5.80;;
74789;SDS011;63318;52.406;13.416;2023-03-01T10:07:58;13.90;;;6.50;;
74789;SDS011;63318;52.406;13.416;2023-03-01T10:10:43;11.90;;;6.40;;
74789;SDS011;63318;52.406;13.416;2023-03-01T10:13:16;10.60;;;6.00;;
74789;SDS011;63318;52.406;13.416;2023-03-01T10:15:50;10.70;;;6.00;;
74789;SDS011;63318;52.406;13.416;2023-03-01T10:18:22;12.40;;;6.10;;
74789;SDS011;63318;52.406;13.416;2023-03-01T10:20:57;11.70;;;6.70;;
74789;SDS011;63318;52.406;13.416;2023-03-01T10:23:27;10.60;;;6.20;;
74789;SDS011;63318;52.406;13.416;2023-03-01T10:26:04;10.80;;;5.90;;
74789;SDS011;63318;52.406;13.416;2023-03-01T10:28:48;12.00;;;6.60;;
74789;SDS011;63318;52.406;13.416;2023-03-01T10:31:23;10.90;;;5.90;;
74789;SDS011;63318;52.406;13.416;2023-03-01T10:33:56;11.10;;;5.80;;
74789;SDS011;63318;52.406;13.416;2023-03-01T10:36:24;12.10;;;6.20;;
74789;SDS011;63318;52.406;13.416;2023-03-01T10:38:53;10.70;;;6.20;;
74789;SDS011;63318;52.406;13.416;2023-03-01T10:41:23;13.80;;;6.70;;
74789;SDS011;63318;52.406;13.416;2023-03-01T10:43:54;11.30;;;6.30;;
74789;SDS011;63318;52.406;13.416;2023-03-01T10:46:25;12.10;;;5.70;;
74789;SDS011;63318;52.406;13.416;2023-03-01T10:49:12;9.30;;;5.70;;
74789;SDS011;63318;52.406;13.416;2023-03-01T10:51:44;10.50;;;6.40;;
74789;SDS011;63318;52.406;13.416;2023-03-01T10:54:17;10.70;;;5.90;;
74789;SDS011;63318;52.406;13.416;2023-03-01T10:56:49;13.80;;;6.70;;
74789;SDS011;63318;52.406;13.416;2023-03-01T10:59:26;12.80;;;5.90;;
74789;SDS011;63318;52.406;13.416;2023-03-01T11:02:03;10.30;;;6.10;;
74789;SDS011;63318;52.406;13.416;2023-03-01T11:05:01;11.70;;;6.50;;
74789;SDS011;63318;52.406;13.416;2023-03-01T11:07:47;14.70;;;5.90;;
74789;SDS011;63318;52.406;13.416;2023-03-01T11:10:18;12.90;;;6.50;;
74789;SDS011;63318;52.406;13.416;2023-03-01T11:12:52;11.50;;;5.90;;
74789;SDS011;63318;52.406;13.416;2023-03-01T11:15:32;11.60;;;6.50;;
74789;SDS011;63318;52.406;13.416;2023-03-01T11:18:00;10.70;;;5.70;;
74789;SDS011;63318;52.406;13.416;2023-03-01T11:20:30;11.20;;;6.00;;
74789;SDS011;63318;52.406;13.416;2023-03-01T11:23:03;10.30;;;5.40;;
74789;SDS011;63318;52.406;13.416;2023-03-01T11:25:37;11.00;;;6.20;;
74789;SDS011;63318;52.406;13.416;2023-03-01T11:28:10;11.60;;;5.60;;
74789;SDS011;63318;52.406;13.416;2023-03-01T11:30:43;10.30;;;5.70;;
74789;SDS011;63318;52.406;13.416;2023-03-01T11:33:18;15.50;;;6.60;;
74789;SDS011;63318;52.406;13.416;2023-03-01T11:36:00;10.10;;;5.20;;
74789;SDS011;63318;52.406;13.416;2023-03-01T11:38:32;13.20;;;5.70;;
74789;SDS011;63318;52.406;13.416;2023-03-01T11:41:04;10.10;;;5.20;;
74789;SDS011;63318;52.406;13.416;2023-03-01T11:43:36;10.20;;;4.60;;
74789;SDS011;63318;52.406;13.416;2023-03-01T11:49:19;8.90;;;4.70;;
74789;SDS011;63318;52.406;13.416;2023-03-01T11:52:01;10.70;;;5.10;;
74789;SDS011;63318;52.406;13.416;2023-03-01T11:54:41;12.00;;;4.70;;
74789;SDS011;63318;52.406;13.416;2023-03-01T11:57:26;11.10;;;5.20;;
74789;SDS011;63318;52.406;13.416;2023-03-01T12:00:17;9.90;;;4.80;;
74789;SDS011;63318;52.406;13.416;2023-03-01T12:03:06;8.00;;;4.20;;
74789;SDS011;63318;52.406;13.416;2023-03-01T12:05:54;10.30;;;4.40;;
74789;SDS011;63318;52.406;13.416;2023-03-01T12:08:33;7.80;;;3.90;;
74789;SDS011;63318;52.406;13.416;2023-03-01T12:11:10;6.70;;;3.30;;
74789;SDS011;63318;52.406;13.416;2023-03-01T12:14:02;8.40;;;4.00;;
74789;SDS011;63318;52.406;13.416;2023-03-01T12:16:50;7.40;;;3.60;;
74789;SDS011;63318;52.406;13.416;2023-03-01T12:19:41;6.70;;;3.50;;
74789;SDS011;63318;52.406;13.416;2023-03-01T12:22:31;11.40;;;3.60;;
74789;SDS011;63318;52.406;13.416;2023-03-01T12:27:55;7.80;;;3.60;;
74789;SDS011;63318;52.406;13.416;2023-03-01T12:30:45;7.90;;;3.40;;
74789;SDS011;63318;52.406;13.416;2023-03-01T12:33:26;8.80;;;4.00;;
74789;SDS011;63318;52.406;13.416;2023-03-01T12:39:02;7.50;;;3.40;;
74789;SDS011;63318;52.406;13.416;2023-03-01T12:41:43;5.50;;;2.80;;
74789;SDS011;63318;52.406;13.416;2023-03-01T12:44:26;7.60;;;3.40;;
74789;SDS011;63318;52.406;13.416;2023-03-01T12:47:05;6.80;;;3.00;;
74789;SDS011;63318;52.406;13.416;2023-03-01T12:49:43;10.00;;;2.80;;
74789;SDS011;63318;52.406;13.416;2023-03-01T12:52:17;8.00;;;3.40;;
74789;SDS011;63318;52.406;13.416;2023-03-01T12:54:49;7.50;;;3.40;;
74789;SDS011;63318;52.406;13.416;2023-03-01T12:57:21;6.90;;;3.20;;
74789;SDS011;63318;52.406;13.416;2023-03-01T12:59:59;6.00;;;2.90;;
74789;SDS011;63318;52.406;13.416;2023-03-01T13:02:37;6.20;;;2.90;;
74789;SDS011;63318;52.406;13.416;2023-03-01T13:05:23;8.20;;;2.80;;
74789;SDS011;63318;52.406;13.416;2023-03-01T13:08:01;4.80;;;2.30;;
74789;SDS011;63318;52.406;13.416;2023-03-01T13:10:39;5.60;;;2.40;;
74789;SDS011;63318;52.406;13.416;2023-03-01T13:13:14;6.50;;;2.60;;
74789;SDS011;63318;52.406;13.416;2023-03-01T13:15:48;7.70;;;2.90;;
74789;SDS011;63318;52.406;13.416;2023-03-01T13:18:30;10.20;;;3.40;;
74789;SDS011;63318;52.406;13.416;2023-03-01T13:21:01;6.00;;;3.10;;
74789;SDS011;63318;52.406;13.416;2023-03-01T13:23:32;6.40;;;2.80;;
74789;SDS011;63318;52.406;13.416;2023-03-01T13:26:08;7.80;;;2.90;;
74789;SDS011;63318;52.406;13.416;2023-03-01T13:28:45;6.30;;;2.40;;
74789;SDS011;63318;52.406;13.416;2023-03-01T13:34:43;4.90;;;2.40;;
74789;SDS011;63318;52.406;13.416;2023-03-01T13:37:29;6.90;;;2.70;;
74789;SDS011;63318;52.406;13.416;2023-03-01T13:40:05;6.00;;;2.30;;
74789;SDS011;63318;52.406;13.416;2023-03-01T13:42:52;5.00;;;2.10;;
74789;SDS011;63318;52.406;13.416;2023-03-01T13:45:22;7.40;;;2.10;;
74789;SDS011;63318;52.406;13.416;2023-03-01T13:48:00;6.80;;;2.00;;
74789;SDS011;63318;52.406;13.416;2023-03-01T13:50:38;5.50;;;1.90;;
74789;SDS011;63318;52.406;13.416;2023-03-01T13:53:15;11.30;;;2.40;;
74789;SDS011;63318;52.406;13.416;2023-03-01T13:55:46;5.80;;;2.20;;
74789;SDS011;63318;52.406;13.416;2023-03-01T13:58:21;6.60;;;2.20;;
74789;SDS011;63318;52.406;13.416;2023-03-01T14:00:56;5.50;;;1.90;;
74789;SDS011;63318;52.406;13.416;2023-03-01T14:03:27;4.70;;;2.10;;
74789;SDS011;63318;52.406;13.416;2023-03-01T14:06:05;5.70;;;2.10;;
74789;SDS011;63318;52.406;13.416;2023-03-01T14:08:36;4.30;;;1.90;;
74789;SDS011;63318;52.406;13.416;2023-03-01T14:11:10;8.00;;;2.40;;
74789;SDS011;63318;52.406;13.416;2023-03-01T14:14:03;5.40;;;2.10;;
74789;SDS011;63318;52.406;13.416;2023-03-01T14:16:47;4.80;;;1.80;;
74789;SDS011;63318;52.406;13.416;2023-03-01T14:19:24;6.40;;;2.10;;
74789;SDS011;63318;52.406;13.416;2023-03-01T14:22:02;4.50;;;1.90;;
74789;SDS011;63318;52.406;13.416;2023-03-01T14:24:46;6.10;;;2.40;;
74789;SDS011;63318;52.406;13.416;2023-03-01T14:27:16;9.50;;;2.30;;
74789;SDS011;63318;52.406;13.416;2023-03-01T14:29:53;5.10;;;2.00;;
74789;SDS011;63318;52.406;13.416;2023-03-01T14:32:26;5.30;;;1.80;;
74789;SDS011;63318;52.406;13.416;2023-03-01T14:34:59;5.90;;;2.20;;
74789;SDS011;63318;52.406;13.416;2023-03-01T14:37:46;5.30;;;2.20;;
74789;SDS011;63318;52.406;13.416;2023-03-01T14:40:21;5.70;;;2.00;;
74789;SDS011;63318;52.406;13.416;2023-03-01T14:42:52;6.90;;;2.50;;
74789;SDS011;63318;52.406;13.416;2023-03-01T14:47:53;5.40;;;1.70;;
74789;SDS011;63318;52.406;13.416;2023-03-01T14:50:26;6.90;;;2.30;;
74789;SDS011;63318;52.406;13.416;2023-03-01T14:52:56;6.50;;;2.00;;
74789;SDS011;63318;52.406;13.416;2023-03-01T14:55:29;6.20;;;2.40;;
74789;SDS011;63318;52.406;13.416;2023-03-01T14:58:02;4.40;;;1.60;;
74789;SDS011;63318;52.406;13.416;2023-03-01T15:00:32;5.10;;;2.20;;
74789;SDS011;63318;52.406;13.416;2023-03-01T15:03:04;4.20;;;1.90;;
74789;SDS011;63318;52.406;13.416;2023-03-01T15:05:43;5.10;;;2.00;;